This is the latest recevied weather packets stored in our database for station/object KC4JIR. If no packets are shown the sender has not sent any weather packets the latest 10 day(s).
| Time | Temp. | Humidity | Pressure | Rain* | Wind** | Luminosity | Snow |
|---|---|---|---|---|---|---|---|
| 1778036013 | 18.89° C | 71% | 1012.8 hPa | 0 mm | - | 0 W/m² | - |
| 1778035711 | 18.89° C | 71% | 1012.9 hPa | 0 mm | - | 0 W/m² | - |
| 1778034497 | 19.44° C | 70% | 1012.2 hPa | 0 mm | - | 0 W/m² | - |
| 1778034195 | 19.44° C | 70% | 1012.5 hPa | 0 mm | - | 0 W/m² | - |
| 1778026921 | 24.44° C | 47% | 1011.9 hPa | 0 mm | - | 1 W/m² | - |
| 1778026616 | 24.44° C | 47% | 1011.8 hPa | 0 mm | - | 1 W/m² | - |
| 1778026314 | 24.44° C | 46% | 1011.8 hPa | 0 mm | - | 3 W/m² | - |
| 1778026011 | 24.44° C | 47% | 1011.4 hPa | 0 mm | - | 4 W/m² | - |
| 1778025709 | 25° C | 48% | 1011.4 hPa | 0 mm | - | 6 W/m² | - |
| 1778025406 | 25° C | 45% | 1011.4 hPa | 0 mm | - | 9 W/m² | - |
| 1778025104 | 25.56° C | 46% | 1011.4 hPa | 0 mm | - | 13 W/m² | - |
| 1778024800 | 25.56° C | 43% | 1011.2 hPa | 0 mm | - | 15 W/m² | - |
| 1778024497 | 26.11° C | 42% | 1011.3 hPa | 0 mm | - | 17 W/m² | - |
| 1778024194 | 26.11° C | 43% | 1011.2 hPa | 0 mm | - | 18 W/m² | - |
| 1778023892 | 26.11° C | 43% | 1011.1 hPa | 0 mm | - | 21 W/m² | - |
| 1778023589 | 26.67° C | 43% | 1011.3 hPa | 0 mm | - | 23 W/m² | - |
| 1778023287 | 26.67° C | 41% | 1011.2 hPa | 0 mm | - | 26 W/m² | - |
| 1778022983 | 26.67° C | 43% | 1011 hPa | 0 mm | - | 32 W/m² | - |
| 1778022682 | 26.67° C | 44% | 1011.1 hPa | 0 mm | - | 28 W/m² | - |
| 1778022380 | 26.67° C | 46% | 1011 hPa | 0 mm | - | 32 W/m² | - |
| 1778022075 | 27.22° C | 44% | 1011.1 hPa | 0 mm | - | 35 W/m² | - |
| 1778021772 | 27.78° C | 43% | 1011.1 hPa | 0 mm | - | 41 W/m² | - |
| 1778021468 | 28.33° C | 42% | 1011.1 hPa | 0 mm | - | 91 W/m² | - |
| 1778021165 | 28.33° C | 42% | 1011 hPa | 0 mm | - | 156 W/m² | - |
| 1778020863 | 28.33° C | 41% | 1010.9 hPa | 0 mm | - | 156 W/m² | - |
* Rain latest hour (hover to see other rain measurements)
** Current wind speed in m/s (hover to see current wind gust speed)